createdAt,value
2018-11-14T00:00:42.072Z,9.73
2018-11-14T00:03:10.551Z,10.10
2018-11-14T00:05:39.244Z,9.27
2018-11-14T00:08:08.136Z,9.20
2018-11-14T00:10:36.531Z,8.93
2018-11-14T00:13:04.925Z,9.03
2018-11-14T00:15:33.361Z,9.00
2018-11-14T00:18:01.765Z,8.50
2018-11-14T00:20:30.299Z,8.37
2018-11-14T00:22:58.707Z,8.30
2018-11-14T00:25:27.148Z,8.60
2018-11-14T00:27:55.609Z,8.00
2018-11-14T00:30:25.379Z,8.30
2018-11-14T00:32:53.979Z,7.47
2018-11-14T00:35:22.512Z,8.20
2018-11-14T00:37:51.286Z,7.60
2018-11-14T00:40:20.304Z,7.70
2018-11-14T00:42:49.231Z,7.30
2018-11-14T00:45:19.113Z,7.67
2018-11-14T00:47:48.258Z,7.30
2018-11-14T00:50:17.616Z,7.60
2018-11-14T00:52:46.406Z,7.10
2018-11-14T00:55:18.092Z,7.00
2018-11-14T00:57:47.666Z,6.37
2018-11-14T01:00:24.055Z,6.67
2018-11-14T01:02:52.533Z,6.33
2018-11-14T01:05:22.034Z,6.67
2018-11-14T01:07:50.804Z,6.57
2018-11-14T01:10:20.708Z,7.10
2018-11-14T01:12:49.813Z,6.80
2018-11-14T01:15:19.139Z,5.63
2018-11-14T01:17:47.799Z,6.07
2018-11-14T01:20:17.696Z,6.27
2018-11-14T01:22:46.415Z,6.17
2018-11-14T01:25:16.036Z,6.13
2018-11-14T01:27:44.888Z,6.07
2018-11-14T01:30:15.772Z,7.07
2018-11-14T01:32:45.124Z,6.57
2018-11-14T01:35:14.242Z,6.73
2018-11-14T01:37:42.899Z,6.07
2018-11-14T01:40:19.726Z,7.00
2018-11-14T01:42:49.504Z,7.60
2018-11-14T01:45:18.380Z,7.40
2018-11-14T01:47:47.176Z,6.73
2018-11-14T01:50:15.741Z,7.00
2018-11-14T01:52:44.133Z,6.87
2018-11-14T01:55:14.560Z,7.50
2018-11-14T01:57:43.058Z,6.63
2018-11-14T02:00:12.858Z,6.73
2018-11-14T02:02:41.388Z,6.50
2018-11-14T02:05:10.432Z,6.40
2018-11-14T02:07:38.968Z,6.13
2018-11-14T02:10:09.041Z,6.70
2018-11-14T02:12:37.740Z,6.27
2018-11-14T02:15:07.814Z,6.17
2018-11-14T02:17:36.840Z,6.90
2018-11-14T02:20:06.332Z,6.13
2018-11-14T02:22:34.678Z,6.30
2018-11-14T02:25:03.075Z,6.40
2018-11-14T02:27:31.633Z,6.03
2018-11-14T02:29:59.937Z,6.00
2018-11-14T02:32:28.367Z,6.37
2018-11-14T02:34:56.741Z,6.17
2018-11-14T02:37:25.254Z,5.83
2018-11-14T02:39:53.711Z,6.70
2018-11-14T02:42:22.588Z,6.93
2018-11-14T02:44:51.276Z,7.33
2018-11-14T02:47:19.752Z,7.23
2018-11-14T02:49:48.211Z,7.10
2018-11-14T02:52:17.339Z,8.10
2018-11-14T02:54:45.703Z,7.23
2018-11-14T02:57:14.045Z,11.13
2018-11-14T02:59:42.383Z,12.17
2018-11-14T03:02:10.703Z,11.90
2018-11-14T03:04:39.409Z,12.63
2018-11-14T03:07:08.176Z,12.77
2018-11-14T03:09:36.563Z,13.43
2018-11-14T03:12:05.210Z,14.00
2018-11-14T03:14:33.932Z,14.30
2018-11-14T03:17:02.540Z,13.50
2018-11-14T03:19:31.205Z,12.60
2018-11-14T03:21:59.917Z,13.20
2018-11-14T03:24:28.635Z,12.77
2018-11-14T03:26:57.045Z,13.17
2018-11-14T03:29:25.475Z,11.83
2018-11-14T03:31:54.007Z,11.70
2018-11-14T03:34:22.371Z,10.40
2018-11-14T03:36:50.706Z,10.80
2018-11-14T03:39:19.693Z,11.30
2018-11-14T03:41:48.478Z,11.00
2018-11-14T03:44:16.837Z,11.60
2018-11-14T03:46:45.347Z,11.00
2018-11-14T03:49:13.932Z,11.57
2018-11-14T03:51:42.292Z,13.17
2018-11-14T03:54:10.751Z,14.20
2018-11-14T03:56:39.154Z,14.97
2018-11-14T03:59:07.576Z,15.57
2018-11-14T04:01:35.947Z,16.53
2018-11-14T04:04:04.692Z,17.73
2018-11-14T04:06:33.133Z,18.47
2018-11-14T04:09:01.460Z,18.93
2018-11-14T04:11:29.911Z,18.93
2018-11-14T04:13:58.523Z,19.13
2018-11-14T04:16:27.139Z,19.07
2018-11-14T04:18:55.873Z,20.23
2018-11-14T04:21:24.551Z,18.97
2018-11-14T04:23:53.088Z,18.80
2018-11-14T04:26:21.461Z,21.20
2018-11-14T04:28:50.094Z,19.43
2018-11-14T04:31:18.707Z,20.43
2018-11-14T04:33:47.435Z,20.20
2018-11-14T04:36:15.824Z,20.03
2018-11-14T04:38:44.727Z,19.90
2018-11-14T04:41:13.217Z,20.53
2018-11-14T04:43:42.007Z,21.33
2018-11-14T04:46:10.611Z,20.90
2018-11-14T04:48:39.250Z,21.87
2018-11-14T04:51:07.862Z,21.27
2018-11-14T04:53:36.166Z,21.97
2018-11-14T04:56:04.628Z,21.57
2018-11-14T04:58:32.996Z,21.17
2018-11-14T05:01:01.387Z,21.00
2018-11-14T05:03:29.732Z,21.67
2018-11-14T05:05:58.168Z,22.70
2018-11-14T05:08:27.033Z,21.83
2018-11-14T05:10:55.545Z,23.20
2018-11-14T05:13:24.318Z,25.23
2018-11-14T05:15:53.495Z,25.53
2018-11-14T05:18:21.973Z,25.33
2018-11-14T05:20:50.705Z,26.53
2018-11-14T05:23:19.371Z,27.30
2018-11-14T05:25:47.607Z,25.93
2018-11-14T05:28:15.906Z,27.33
2018-11-14T05:30:44.343Z,29.63
2018-11-14T05:33:12.778Z,27.93
2018-11-14T05:35:41.069Z,30.87
2018-11-14T05:38:09.342Z,29.80
2018-11-14T05:40:37.740Z,29.73
2018-11-14T05:43:06.215Z,31.00
2018-11-14T05:45:34.914Z,31.23
2018-11-14T05:48:03.643Z,31.37
2018-11-14T05:50:32.692Z,30.23
2018-11-14T05:53:01.489Z,30.10
2018-11-14T05:55:29.850Z,30.93
2018-11-14T05:57:58.267Z,29.53
2018-11-14T06:00:31.255Z,27.87
2018-11-14T06:03:00.867Z,26.77
2018-11-14T06:05:29.431Z,27.03
2018-11-14T06:07:58.046Z,26.07
2018-11-14T06:10:26.804Z,22.53
2018-11-14T06:12:55.112Z,22.33
2018-11-14T06:15:23.967Z,21.33
2018-11-14T06:17:53.672Z,22.03
2018-11-14T06:20:22.899Z,22.53
2018-11-14T06:22:52.056Z,24.07
2018-11-14T06:25:26.309Z,25.40
2018-11-14T06:27:55.543Z,24.03
2018-11-14T06:30:25.356Z,24.67
2018-11-14T06:32:54.643Z,24.67
2018-11-14T06:35:23.427Z,23.93
2018-11-14T06:37:52.426Z,22.40
2018-11-14T06:40:21.261Z,23.73
2018-11-14T06:42:49.638Z,22.23
2018-11-14T06:45:19.604Z,21.20
2018-11-14T06:47:49.427Z,20.47
2018-11-14T06:50:18.080Z,20.50
2018-11-14T06:52:47.820Z,19.87
2018-11-14T06:55:17.032Z,18.93
2018-11-14T06:57:45.444Z,18.97
2018-11-14T07:00:32.911Z,17.53
2018-11-14T07:03:02.427Z,18.93
2018-11-14T07:05:31.178Z,18.70
2018-11-14T07:07:59.711Z,18.07
2018-11-14T07:10:29.603Z,17.90
2018-11-14T07:13:04.265Z,16.97
2018-11-14T07:15:32.731Z,18.37
2018-11-14T07:18:01.365Z,18.37
2018-11-14T07:20:31.336Z,16.67
2018-11-14T07:23:00.096Z,17.13
2018-11-14T07:25:28.564Z,15.33
2018-11-14T07:27:56.968Z,16.53
2018-11-14T07:30:26.704Z,15.57
2018-11-14T07:32:56.684Z,16.97
2018-11-14T07:35:25.455Z,16.90
2018-11-14T07:39:04.613Z,17.67
2018-11-14T07:41:38.177Z,17.13
2018-11-14T07:44:07.020Z,15.93
2018-11-14T07:46:36.190Z,16.10
2018-11-14T07:49:05.026Z,17.97
2018-11-14T07:51:33.492Z,17.43
2018-11-14T07:54:01.909Z,18.83
2018-11-14T07:56:30.420Z,19.47
2018-11-14T07:58:59.179Z,19.03
2018-11-14T08:01:27.923Z,19.83
2018-11-14T08:03:56.485Z,20.07
2018-11-14T08:06:24.937Z,19.90
2018-11-14T08:08:53.412Z,19.83
2018-11-14T08:11:24.879Z,20.67
2018-11-14T08:13:53.624Z,21.10
2018-11-14T08:16:22.257Z,21.97
2018-11-14T08:18:50.668Z,21.37
2018-11-14T08:21:19.426Z,21.50
2018-11-14T08:23:47.823Z,22.87
2018-11-14T08:26:16.112Z,26.03
2018-11-14T08:28:44.774Z,24.17
2018-11-14T08:31:13.472Z,25.10
2018-11-14T08:33:42.064Z,25.57
2018-11-14T08:36:10.455Z,26.47
2018-11-14T08:38:38.792Z,28.20
2018-11-14T08:41:07.581Z,28.83
2018-11-14T08:43:36.051Z,28.20
2018-11-14T08:46:04.577Z,30.97
2018-11-14T08:48:32.932Z,32.60
2018-11-14T08:51:01.479Z,30.73
2018-11-14T08:53:29.890Z,33.03
2018-11-14T08:55:58.292Z,31.47
2018-11-14T08:58:27.079Z,30.73
2018-11-14T09:00:55.865Z,33.37
2018-11-14T09:03:24.490Z,33.37
2018-11-14T09:05:53.317Z,31.67
2018-11-14T09:08:21.699Z,33.90
2018-11-14T09:10:50.031Z,33.10
2018-11-14T09:13:18.431Z,34.07
2018-11-14T09:15:46.764Z,32.63
2018-11-14T09:18:15.122Z,32.10
2018-11-14T09:20:43.542Z,33.50
2018-11-14T09:23:11.906Z,33.90
2018-11-14T09:25:40.495Z,32.63
2018-11-14T09:28:09.112Z,32.57
2018-11-14T09:30:37.527Z,32.67
2018-11-14T09:33:06.288Z,32.70
2018-11-14T09:35:34.858Z,33.30
2018-11-14T09:38:03.731Z,33.40
2018-11-14T09:40:32.295Z,31.43
2018-11-14T09:43:01.000Z,32.40
2018-11-14T09:45:30.327Z,38.63
2018-11-14T09:47:58.799Z,37.33
2018-11-14T09:50:30.429Z,36.60
2018-11-14T09:53:00.382Z,36.73
2018-11-14T09:55:28.859Z,42.70
2018-11-14T09:57:57.251Z,40.63
2018-11-14T10:00:27.108Z,40.43
2018-11-14T10:02:58.175Z,41.60
2018-11-14T10:05:26.765Z,39.57
2018-11-14T10:07:55.145Z,40.47
2018-11-14T10:10:24.134Z,38.77
2018-11-14T10:12:52.554Z,38.43
2018-11-14T10:15:22.920Z,37.33
2018-11-14T10:17:51.400Z,44.70
2018-11-14T10:20:22.356Z,43.80
2018-11-14T10:22:52.354Z,43.07
2018-11-14T10:25:22.344Z,44.70
2018-11-14T10:27:52.223Z,42.13
2018-11-14T10:30:23.839Z,45.33
2018-11-14T10:32:54.096Z,43.50
2018-11-14T10:35:23.363Z,48.37
2018-11-14T10:37:53.279Z,45.77
2018-11-14T10:40:24.055Z,48.80
2018-11-14T10:42:54.151Z,47.37
2018-11-14T10:45:24.562Z,51.37
2018-11-14T10:47:53.748Z,51.90
2018-11-14T10:50:24.996Z,51.83
2018-11-14T10:52:54.109Z,50.77
2018-11-14T10:55:25.066Z,47.80
2018-11-14T10:57:54.937Z,46.03
2018-11-14T11:00:30.109Z,45.20
2018-11-14T11:03:05.512Z,44.23
2018-11-14T11:05:40.579Z,43.80
2018-11-14T11:08:15.162Z,45.53
2018-11-14T11:10:49.412Z,47.33
2018-11-14T11:13:23.439Z,49.43
2018-11-14T11:15:57.674Z,44.10
2018-11-14T11:18:27.587Z,47.47
2018-11-14T11:20:56.544Z,47.23
2018-11-14T11:23:25.463Z,45.77
2018-11-14T11:25:54.139Z,47.90
2018-11-14T11:28:22.711Z,47.33
2018-11-14T11:30:51.823Z,42.00
2018-11-14T11:33:20.820Z,43.27
2018-11-14T11:35:49.128Z,41.80
2018-11-14T11:38:17.798Z,41.63
2018-11-14T11:40:46.167Z,41.70
2018-11-14T11:43:14.629Z,38.87
2018-11-14T11:45:42.935Z,39.53
2018-11-14T11:48:12.010Z,37.33
2018-11-14T11:50:41.871Z,36.97
2018-11-14T11:53:11.534Z,37.53
2018-11-14T11:55:40.720Z,40.07
2018-11-14T11:58:11.656Z,40.17
2018-11-14T12:00:41.061Z,42.07
2018-11-14T12:03:10.087Z,38.70
2018-11-14T12:05:39.378Z,38.10
2018-11-14T12:08:08.591Z,35.27
2018-11-14T12:10:37.834Z,35.37
2018-11-14T12:13:07.058Z,33.30
2018-11-14T12:15:41.266Z,30.63
2018-11-14T12:18:10.306Z,25.57
2018-11-14T12:20:40.219Z,25.57
2018-11-14T12:23:09.387Z,22.47
2018-11-14T12:25:39.070Z,19.70
2018-11-14T12:28:08.300Z,18.20
2018-11-14T12:30:37.513Z,16.53
2018-11-14T12:33:07.388Z,15.00
2018-11-14T12:35:37.257Z,15.80
2018-11-14T12:38:07.372Z,17.17
2018-11-14T12:40:36.567Z,16.80
2018-11-14T12:43:06.335Z,17.70
2018-11-14T12:45:35.643Z,17.77
2018-11-14T12:48:04.992Z,16.67
2018-11-14T12:50:34.195Z,14.70
2018-11-14T12:53:03.315Z,13.77
2018-11-14T12:55:32.620Z,13.57
2018-11-14T12:58:01.946Z,14.63
2018-11-14T13:00:31.291Z,15.30
2018-11-14T13:03:00.593Z,13.73
2018-11-14T13:05:29.720Z,13.60
2018-11-14T13:08:01.005Z,13.43
2018-11-14T13:10:30.310Z,12.57
2018-11-14T13:12:59.538Z,14.17
2018-11-14T13:15:50.772Z,14.20
2018-11-14T13:18:20.539Z,15.97
2018-11-14T13:20:49.718Z,15.47
2018-11-14T13:23:19.804Z,14.90
2018-11-14T13:25:50.480Z,18.80
2018-11-14T13:28:19.691Z,18.67
2018-11-14T13:30:49.452Z,16.57
2018-11-14T13:33:23.283Z,20.70
2018-11-14T13:35:53.596Z,20.20
2018-11-14T13:38:23.908Z,20.40
2018-11-14T13:40:54.351Z,22.63
2018-11-14T13:43:23.872Z,21.87
2018-11-14T13:45:54.337Z,23.90
2018-11-14T13:48:23.687Z,22.17
2018-11-14T13:50:53.492Z,23.20
2018-11-14T13:53:23.286Z,21.73
2018-11-14T13:55:53.734Z,22.03
2018-11-14T13:58:22.979Z,21.23
2018-11-14T14:00:52.725Z,21.17
2018-11-14T14:03:22.078Z,19.53
2018-11-14T14:05:51.276Z,21.20
2018-11-14T14:08:20.564Z,20.40
2018-11-14T14:10:51.086Z,20.07
2018-11-14T14:13:21.094Z,20.77
2018-11-14T14:16:01.768Z,22.40
2018-11-14T14:18:31.040Z,23.23
2018-11-14T14:21:00.141Z,20.10
2018-11-14T14:23:29.339Z,21.50
2018-11-14T14:25:59.772Z,21.13
2018-11-14T14:28:28.907Z,21.67
2018-11-14T14:30:57.377Z,21.20
2018-11-14T14:33:26.111Z,19.50
2018-11-14T14:35:54.824Z,20.00
2018-11-14T14:38:23.380Z,18.97
2018-11-14T14:40:52.003Z,20.60
2018-11-14T14:43:20.465Z,19.87
2018-11-14T14:45:48.871Z,20.53
2018-11-14T14:48:17.361Z,21.43
2018-11-14T14:50:45.784Z,22.47
2018-11-14T14:53:14.172Z,22.83
2018-11-14T14:55:42.447Z,21.33
2018-11-14T14:58:10.845Z,21.73
2018-11-14T15:00:39.202Z,22.63
2018-11-14T15:03:07.915Z,24.37
2018-11-14T15:05:36.812Z,25.23
2018-11-14T15:08:05.844Z,25.13
2018-11-14T15:10:34.191Z,24.43
2018-11-14T15:13:02.529Z,25.03
2018-11-14T15:16:06.704Z,22.87
2018-11-14T15:18:35.247Z,33.37
2018-11-14T15:21:03.676Z,38.80
2018-11-14T15:23:32.069Z,37.17
2018-11-14T15:26:00.455Z,32.17
2018-11-14T15:28:28.936Z,28.13
2018-11-14T15:30:57.505Z,25.40
2018-11-14T15:33:25.888Z,24.57
2018-11-14T15:35:55.162Z,21.87
2018-11-14T15:38:23.785Z,23.97
2018-11-14T15:40:52.632Z,22.77
2018-11-14T15:43:21.440Z,23.93
2018-11-14T15:45:49.944Z,22.37
2018-11-14T15:48:18.485Z,21.53
2018-11-14T15:50:47.241Z,22.40
2018-11-14T15:53:15.607Z,22.30
2018-11-14T15:55:44.406Z,23.63
2018-11-14T15:58:13.085Z,20.60
2018-11-14T16:00:41.340Z,19.30
2018-11-14T16:03:09.763Z,20.13
2018-11-14T16:05:38.437Z,22.33
2018-11-14T16:08:06.779Z,22.07
2018-11-14T16:10:35.137Z,21.70
2018-11-14T16:13:03.960Z,24.63
2018-11-14T16:16:01.066Z,23.50
2018-11-14T16:18:29.837Z,23.27
2018-11-14T16:20:58.215Z,32.33
2018-11-14T16:23:26.749Z,33.30
2018-11-14T16:25:55.298Z,28.23
2018-11-14T16:28:23.692Z,24.57
2018-11-14T16:30:52.484Z,26.30
2018-11-14T16:33:20.832Z,27.40
2018-11-14T16:35:49.395Z,32.63
2018-11-14T16:38:18.412Z,27.90
2018-11-14T16:40:46.703Z,25.80
2018-11-14T16:43:15.232Z,32.97
2018-11-14T16:45:43.591Z,35.43
2018-11-14T16:48:11.874Z,39.03
2018-11-14T16:50:40.316Z,35.53
2018-11-14T16:53:08.912Z,30.50
2018-11-14T16:55:37.460Z,34.77
2018-11-14T16:58:06.247Z,62.47
2018-11-14T17:00:34.568Z,128.97
2018-11-14T17:03:03.052Z,139.23
2018-11-14T17:05:32.318Z,148.07
2018-11-14T17:08:01.027Z,140.67
2018-11-14T17:10:29.671Z,153.70
2018-11-14T17:12:58.936Z,175.87
2018-11-14T17:18:47.407Z,134.40
2018-11-14T17:21:15.807Z,98.00
2018-11-14T17:23:44.183Z,83.47
2018-11-14T17:26:12.985Z,79.87
2018-11-14T17:28:41.706Z,82.20
2018-11-14T17:31:10.423Z,67.30
2018-11-14T17:33:38.986Z,60.40
2018-11-14T17:36:07.435Z,64.63
2018-11-14T17:38:35.808Z,101.97
2018-11-14T17:41:04.342Z,258.53
2018-11-14T17:43:32.846Z,371.97
2018-11-14T17:46:01.161Z,397.50
2018-11-14T17:48:29.552Z,236.40
2018-11-14T17:50:57.972Z,203.27
2018-11-14T17:53:26.296Z,236.50
2018-11-14T17:55:55.436Z,229.87
2018-11-14T17:58:23.912Z,158.47
2018-11-14T18:00:53.471Z,152.57
2018-11-14T18:06:25.275Z,172.93
2018-11-14T18:08:53.679Z,131.67
2018-11-14T18:11:22.336Z,96.00
2018-11-14T18:13:50.623Z,148.57
2018-11-14T18:16:38.919Z,218.33
2018-11-14T18:19:07.604Z,120.87
2018-11-14T18:21:36.014Z,71.50
2018-11-14T18:24:04.927Z,88.90
2018-11-14T18:26:33.451Z,77.27
2018-11-14T18:29:01.908Z,72.03
2018-11-14T18:31:30.440Z,77.97
2018-11-14T18:33:58.959Z,93.37
2018-11-14T18:36:27.346Z,100.43
2018-11-14T18:38:55.711Z,118.63
2018-11-14T18:41:24.014Z,140.03
2018-11-14T18:43:52.438Z,133.80
2018-11-14T18:46:20.779Z,103.37
2018-11-14T18:48:49.170Z,79.07
2018-11-14T18:51:17.663Z,79.90
2018-11-14T18:53:46.069Z,108.60
2018-11-14T18:56:14.550Z,94.03
2018-11-14T18:58:43.070Z,72.83
2018-11-14T19:01:11.597Z,56.17
2018-11-14T19:03:40.105Z,50.97
2018-11-14T19:06:08.550Z,48.17
2018-11-14T19:08:36.878Z,44.80
2018-11-14T19:11:05.611Z,43.10
2018-11-14T19:13:34.142Z,41.63
2018-11-14T19:16:30.634Z,44.07
2018-11-14T19:18:59.128Z,39.37
2018-11-14T19:21:27.598Z,38.13
2018-11-14T19:23:55.950Z,38.80
2018-11-14T19:26:24.318Z,37.73
2018-11-14T19:28:53.056Z,33.57
2018-11-14T19:31:21.553Z,30.17
2018-11-14T19:33:50.109Z,28.70
2018-11-14T19:36:18.609Z,26.23
2018-11-14T19:38:47.132Z,25.03
2018-11-14T19:41:16.207Z,26.07
2018-11-14T19:43:44.966Z,28.07
2018-11-14T19:46:13.362Z,26.83
2018-11-14T19:48:41.963Z,26.23
2018-11-14T19:51:10.518Z,24.70
2018-11-14T19:53:39.045Z,24.13
2018-11-14T19:56:07.412Z,25.40
2018-11-14T19:58:36.147Z,23.43
2018-11-14T20:01:04.910Z,21.43
2018-11-14T20:03:33.362Z,21.60
2018-11-14T20:06:01.865Z,21.10
2018-11-14T20:08:30.330Z,21.47
2018-11-14T20:10:58.649Z,20.97
2018-11-14T20:13:27.250Z,21.37
2018-11-14T20:16:36.515Z,19.90
2018-11-14T20:19:04.994Z,19.20
2018-11-14T20:21:33.310Z,18.47
2018-11-14T20:24:01.840Z,18.67
2018-11-14T20:26:30.234Z,19.00
2018-11-14T20:28:58.684Z,19.33
2018-11-14T20:31:27.168Z,20.07
2018-11-14T20:33:55.582Z,18.20
2018-11-14T20:36:24.313Z,17.77
2018-11-14T20:38:52.810Z,18.97
2018-11-14T20:41:21.424Z,19.60
2018-11-14T20:43:50.056Z,19.80
2018-11-14T20:46:18.549Z,18.57
2018-11-14T20:48:47.076Z,18.80
2018-11-14T20:51:15.430Z,17.23
2018-11-14T20:53:43.870Z,17.20
2018-11-14T20:56:12.305Z,17.63
2018-11-14T20:58:40.740Z,18.50
2018-11-14T21:01:09.196Z,19.17
2018-11-14T21:03:37.544Z,20.97
2018-11-14T21:06:06.139Z,18.93
2018-11-14T21:08:34.568Z,20.43
2018-11-14T21:11:03.041Z,18.23
2018-11-14T21:13:31.534Z,17.53
2018-11-14T21:16:40.777Z,17.30
2018-11-14T21:19:09.273Z,16.97
2018-11-14T21:21:37.790Z,16.90
2018-11-14T21:24:06.368Z,16.47
2018-11-14T21:27:05.694Z,17.53
2018-11-14T21:29:34.267Z,17.27
2018-11-14T21:32:02.653Z,17.53
2018-11-14T21:34:31.118Z,17.67
2018-11-14T21:36:59.567Z,15.63
2018-11-14T21:39:28.108Z,14.77
2018-11-14T21:41:56.498Z,14.80
2018-11-14T21:44:24.850Z,15.30
2018-11-14T21:46:53.425Z,15.60
2018-11-14T21:49:27.089Z,15.37
2018-11-14T21:51:56.168Z,15.70
2018-11-14T21:54:25.079Z,15.83
2018-11-14T21:56:53.806Z,15.97
2018-11-14T21:59:22.345Z,15.43
2018-11-14T22:01:50.747Z,17.03
2018-11-14T22:04:19.194Z,16.80
2018-11-14T22:06:47.586Z,17.73
2018-11-14T22:09:16.071Z,16.77
2018-11-14T22:11:44.518Z,16.50
2018-11-14T22:14:29.008Z,16.63
2018-11-14T22:16:57.376Z,15.23
2018-11-14T22:19:25.937Z,15.17
2018-11-14T22:21:54.423Z,15.20
2018-11-14T22:24:22.793Z,17.30
2018-11-14T22:26:51.166Z,16.63
2018-11-14T22:29:19.737Z,15.40
2018-11-14T22:31:48.337Z,14.57
2018-11-14T22:34:16.681Z,15.50
2018-11-14T22:36:45.200Z,13.97
2018-11-14T22:39:13.689Z,13.97
2018-11-14T22:41:42.178Z,13.83
2018-11-14T22:44:10.653Z,14.20
2018-11-14T22:46:39.311Z,14.50
2018-11-14T22:49:07.797Z,13.93
2018-11-14T22:51:36.133Z,14.60
2018-11-14T22:54:04.730Z,14.73
2018-11-14T22:56:33.137Z,14.37
2018-11-14T22:59:01.452Z,15.20
2018-11-14T23:01:30.082Z,14.97
2018-11-14T23:03:58.473Z,14.73
2018-11-14T23:06:26.982Z,14.50
2018-11-14T23:08:55.406Z,14.73
2018-11-14T23:11:24.277Z,14.60
2018-11-14T23:13:52.711Z,14.03
2018-11-14T23:16:21.074Z,14.93
2018-11-14T23:18:49.762Z,16.00
2018-11-14T23:21:18.188Z,14.57
2018-11-14T23:23:46.902Z,14.13
2018-11-14T23:26:15.176Z,13.23
2018-11-14T23:28:43.569Z,13.10
2018-11-14T23:31:11.947Z,12.67
2018-11-14T23:33:40.286Z,12.93
2018-11-14T23:36:08.731Z,13.40
2018-11-14T23:38:37.089Z,13.20
2018-11-14T23:41:05.697Z,12.63
2018-11-14T23:43:34.163Z,12.60
2018-11-14T23:46:02.859Z,12.27
2018-11-14T23:48:31.383Z,12.37
2018-11-14T23:50:59.814Z,12.20
2018-11-14T23:53:28.258Z,12.67
2018-11-14T23:55:56.781Z,11.73
2018-11-14T23:58:25.279Z,12.33
